sensor_id;sensor_type;location;lat;lon;timestamp;pressure;altitude;pressure_sealevel;temperature;humidity
14800;BME280;7491;57.750;11.970;2023-05-23T00:00:14;75323.91;;;-142.11;100.00
14800;BME280;7491;57.750;11.970;2023-05-23T00:02:41;75297.41;;;-142.11;100.00
14800;BME280;7491;57.750;11.970;2023-05-23T00:05:08;75295.38;;;-142.11;100.00
14800;BME280;7491;57.750;11.970;2023-05-23T00:07:37;75281.09;;;-142.11;100.00
14800;BME280;7491;57.750;11.970;2023-05-23T00:10:04;75283.16;;;-142.11;100.00
14800;BME280;7491;57.750;11.970;2023-05-23T00:12:31;75270.91;;;-142.11;100.00
14800;BME280;7491;57.750;11.970;2023-05-23T00:14:58;75268.88;;;-142.11;99.68
14800;BME280;7491;57.750;11.970;2023-05-23T00:17:25;75264.81;;;-142.11;98.50
14800;BME280;7491;57.750;11.970;2023-05-23T00:19:52;75244.44;;;-142.11;98.63
14800;BME280;7491;57.750;11.970;2023-05-23T00:22:20;75248.50;;;-142.11;98.41
14800;BME280;7491;57.750;11.970;2023-05-23T00:24:48;75240.34;;;-142.11;97.97
14800;BME280;7491;57.750;11.970;2023-05-23T00:27:15;75230.16;;;-142.11;97.68
14800;BME280;7491;57.750;11.970;2023-05-23T00:29:42;75232.19;;;-142.11;98.44
14800;BME280;7491;57.750;11.970;2023-05-23T00:32:08;75242.38;;;-142.11;98.87
14800;BME280;7491;57.750;11.970;2023-05-23T00:34:35;75242.38;;;-142.11;98.52
14800;BME280;7491;57.750;11.970;2023-05-23T00:37:03;75234.22;;;-142.11;98.65
14800;BME280;7491;57.750;11.970;2023-05-23T00:39:30;75242.38;;;-142.11;99.11
14800;BME280;7491;57.750;11.970;2023-05-23T00:41:58;75238.31;;;-142.11;99.27
14800;BME280;7491;57.750;11.970;2023-05-23T00:44:29;75242.38;;;-142.11;98.65
14800;BME280;7491;57.750;11.970;2023-05-23T00:46:57;75230.16;;;-142.11;99.25
14800;BME280;7491;57.750;11.970;2023-05-23T00:49:25;75238.31;;;-142.11;99.21
14800;BME280;7491;57.750;11.970;2023-05-23T00:51:52;75246.47;;;-142.11;98.54
14800;BME280;7491;57.750;11.970;2023-05-23T00:54:22;75230.16;;;-142.11;98.53
14800;BME280;7491;57.750;11.970;2023-05-23T00:56:50;75224.03;;;-142.11;98.54
14800;BME280;7491;57.750;11.970;2023-05-23T00:59:18;75226.09;;;-142.11;98.28
14800;BME280;7491;57.750;11.970;2023-05-23T01:01:47;75236.28;;;-142.11;98.13
14800;BME280;7491;57.750;11.970;2023-05-23T01:04:17;75222.00;;;-142.11;98.18
14800;BME280;7491;57.750;11.970;2023-05-23T01:06:44;75228.13;;;-142.11;97.70
14800;BME280;7491;57.750;11.970;2023-05-23T01:09:14;75226.09;;;-142.11;97.42
14800;BME280;7491;57.750;11.970;2023-05-23T01:11:44;75248.50;;;-142.11;98.77
14800;BME280;7491;57.750;11.970;2023-05-23T01:14:21;75260.72;;;-142.11;98.65
14800;BME280;7491;57.750;11.970;2023-05-23T01:16:54;75279.06;;;-142.11;99.01
14800;BME280;7491;57.750;11.970;2023-05-23T01:19:41;75281.09;;;-142.11;99.45
14800;BME280;7491;57.750;11.970;2023-05-23T01:22:21;75299.44;;;-142.11;99.56
14800;BME280;7491;57.750;11.970;2023-05-23T01:24:54;75305.56;;;-142.11;100.00
14800;BME280;7491;57.750;11.970;2023-05-23T01:27:38;75315.75;;;-142.11;100.00
14800;BME280;7491;57.750;11.970;2023-05-23T01:30:09;75319.81;;;-142.11;99.54
14800;BME280;7491;57.750;11.970;2023-05-23T01:32:39;75301.50;;;-142.11;98.17
14800;BME280;7491;57.750;11.970;2023-05-23T01:35:06;75289.25;;;-142.11;98.51
14800;BME280;7491;57.750;11.970;2023-05-23T01:37:34;75295.38;;;-142.11;98.85
14800;BME280;7491;57.750;11.970;2023-05-23T01:40:00;75307.59;;;-142.11;99.20
14800;BME280;7491;57.750;11.970;2023-05-23T01:42:27;75295.38;;;-142.11;97.94
14800;BME280;7491;57.750;11.970;2023-05-23T01:44:56;75285.19;;;-142.11;98.41
14800;BME280;7491;57.750;11.970;2023-05-23T01:47:24;75289.25;;;-142.11;98.35
14800;BME280;7491;57.750;11.970;2023-05-23T01:49:51;75295.38;;;-142.11;97.70
14800;BME280;7491;57.750;11.970;2023-05-23T01:52:20;75283.16;;;-142.11;96.67
14800;BME280;7491;57.750;11.970;2023-05-23T01:54:48;75266.84;;;-142.11;96.26
14800;BME280;7491;57.750;11.970;2023-05-23T01:57:16;75258.69;;;-142.11;95.96
14800;BME280;7491;57.750;11.970;2023-05-23T01:59:45;75266.84;;;-142.11;97.39
14800;BME280;7491;57.750;11.970;2023-05-23T02:02:13;75262.75;;;-142.11;96.62
14800;BME280;7491;57.750;11.970;2023-05-23T02:04:40;75266.84;;;-142.11;94.74
14800;BME280;7491;57.750;11.970;2023-05-23T02:07:07;75254.63;;;-142.11;96.55
14800;BME280;7491;57.750;11.970;2023-05-23T02:09:34;75283.16;;;-142.11;96.04
14800;BME280;7491;57.750;11.970;2023-05-23T02:12:00;75270.91;;;-142.11;96.91
14800;BME280;7491;57.750;11.970;2023-05-23T02:14:28;75295.38;;;-142.11;98.12
14800;BME280;7491;57.750;11.970;2023-05-23T02:16:54;75315.75;;;-142.11;98.22
14800;BME280;7491;57.750;11.970;2023-05-23T02:19:23;75344.28;;;-142.11;98.57
14800;BME280;7491;57.750;11.970;2023-05-23T02:21:51;75332.06;;;-142.11;98.33
14800;BME280;7491;57.750;11.970;2023-05-23T02:24:18;75327.97;;;-142.11;99.01
14800;BME280;7491;57.750;11.970;2023-05-23T02:26:45;75336.13;;;-142.11;98.83
14800;BME280;7491;57.750;11.970;2023-05-23T02:29:12;75325.94;;;-142.11;98.65
14800;BME280;7491;57.750;11.970;2023-05-23T02:31:41;75334.09;;;-142.11;98.72
14800;BME280;7491;57.750;11.970;2023-05-23T02:34:08;75342.25;;;-142.11;99.09
14800;BME280;7491;57.750;11.970;2023-05-23T02:36:36;75319.81;;;-142.11;99.00
14800;BME280;7491;57.750;11.970;2023-05-23T02:39:03;75317.78;;;-142.11;98.97
14800;BME280;7491;57.750;11.970;2023-05-23T02:41:31;75309.63;;;-142.11;99.60
14800;BME280;7491;57.750;11.970;2023-05-23T02:43:58;75313.72;;;-142.11;99.55
14800;BME280;7491;57.750;11.970;2023-05-23T02:46:25;75317.78;;;-142.11;100.00
14800;BME280;7491;57.750;11.970;2023-05-23T02:48:52;75323.91;;;-142.11;99.92
14800;BME280;7491;57.750;11.970;2023-05-23T02:51:18;75321.88;;;-142.11;100.00
14800;BME280;7491;57.750;11.970;2023-05-23T02:53:47;75309.63;;;-142.11;99.81
14800;BME280;7491;57.750;11.970;2023-05-23T02:56:14;75323.91;;;-142.11;100.00
14800;BME280;7491;57.750;11.970;2023-05-23T02:58:40;75319.81;;;-142.11;100.00
14800;BME280;7491;57.750;11.970;2023-05-23T03:01:07;75311.69;;;-142.11;100.00
14800;BME280;7491;57.750;11.970;2023-05-23T03:03:34;75307.59;;;-142.11;100.00
14800;BME280;7491;57.750;11.970;2023-05-23T03:06:01;75313.72;;;-142.11;100.00
14800;BME280;7491;57.750;11.970;2023-05-23T03:08:29;75301.50;;;-142.11;100.00
14800;BME280;7491;57.750;11.970;2023-05-23T03:10:57;75287.22;;;-142.11;100.00
14800;BME280;7491;57.750;11.970;2023-05-23T03:13:24;75277.03;;;-142.11;100.00
14800;BME280;7491;57.750;11.970;2023-05-23T03:15:51;75283.16;;;-142.11;100.00
14800;BME280;7491;57.750;11.970;2023-05-23T03:18:17;75291.31;;;-142.11;100.00
14800;BME280;7491;57.750;11.970;2023-05-23T03:20:44;75270.91;;;-142.11;100.00
14800;BME280;7491;57.750;11.970;2023-05-23T03:23:11;75258.69;;;-142.11;100.00
14800;BME280;7491;57.750;11.970;2023-05-23T03:25:38;75254.63;;;-142.11;100.00
14800;BME280;7491;57.750;11.970;2023-05-23T03:28:06;75248.50;;;-142.11;100.00
14800;BME280;7491;57.750;11.970;2023-05-23T03:30:33;75250.53;;;-142.11;100.00
14800;BME280;7491;57.750;11.970;2023-05-23T03:33:00;75252.56;;;-142.11;100.00
14800;BME280;7491;57.750;11.970;2023-05-23T03:35:27;75234.22;;;-142.11;100.00
14800;BME280;7491;57.750;11.970;2023-05-23T03:37:54;75240.34;;;-142.11;100.00
14800;BME280;7491;57.750;11.970;2023-05-23T03:40:21;75230.16;;;-142.11;100.00
14800;BME280;7491;57.750;11.970;2023-05-23T03:42:49;75226.09;;;-142.11;100.00
14800;BME280;7491;57.750;11.970;2023-05-23T03:45:28;75219.97;;;-142.11;100.00
14800;BME280;7491;57.750;11.970;2023-05-23T03:47:55;75226.09;;;-142.11;100.00
14800;BME280;7491;57.750;11.970;2023-05-23T03:50:21;75224.03;;;-142.11;100.00
14800;BME280;7491;57.750;11.970;2023-05-23T03:52:48;75217.94;;;-142.11;100.00
14800;BME280;7491;57.750;11.970;2023-05-23T03:55:15;75215.91;;;-142.11;100.00
14800;BME280;7491;57.750;11.970;2023-05-23T03:57:46;75230.16;;;-142.11;100.00
14800;BME280;7491;57.750;11.970;2023-05-23T04:00:13;75213.84;;;-142.11;100.00
14800;BME280;7491;57.750;11.970;2023-05-23T04:02:42;75209.78;;;-142.11;100.00
14800;BME280;7491;57.750;11.970;2023-05-23T04:05:10;75217.94;;;-142.11;100.00
14800;BME280;7491;57.750;11.970;2023-05-23T04:07:37;75205.72;;;-142.11;100.00
14800;BME280;7491;57.750;11.970;2023-05-23T04:10:07;75211.81;;;-142.11;100.00
14800;BME280;7491;57.750;11.970;2023-05-23T04:12:34;75205.72;;;-142.11;100.00
14800;BME280;7491;57.750;11.970;2023-05-23T04:15:00;75215.91;;;-142.11;100.00
14800;BME280;7491;57.750;11.970;2023-05-23T04:17:28;75209.78;;;-142.11;100.00
14800;BME280;7491;57.750;11.970;2023-05-23T04:19:57;75195.50;;;-142.11;100.00
14800;BME280;7491;57.750;11.970;2023-05-23T04:22:24;75183.28;;;-142.11;100.00
14800;BME280;7491;57.750;11.970;2023-05-23T04:24:51;75177.16;;;-142.11;100.00
14800;BME280;7491;57.750;11.970;2023-05-23T04:27:17;75175.13;;;-142.11;100.00
14800;BME280;7491;57.750;11.970;2023-05-23T04:29:44;75156.78;;;-142.11;100.00
14800;BME280;7491;57.750;11.970;2023-05-23T04:32:11;75148.66;;;-142.11;100.00
14800;BME280;7491;57.750;11.970;2023-05-23T04:34:39;75144.56;;;-142.11;100.00
14800;BME280;7491;57.750;11.970;2023-05-23T04:37:07;75138.44;;;-142.11;100.00
14800;BME280;7491;57.750;11.970;2023-05-23T04:39:34;75132.34;;;-142.11;100.00
14800;BME280;7491;57.750;11.970;2023-05-23T04:42:02;75134.38;;;-142.11;100.00
14800;BME280;7491;57.750;11.970;2023-05-23T04:44:29;75128.25;;;-142.11;100.00
14800;BME280;7491;57.750;11.970;2023-05-23T04:46:56;75118.06;;;-142.11;100.00
14800;BME280;7491;57.750;11.970;2023-05-23T04:49:22;75118.06;;;-142.11;100.00
14800;BME280;7491;57.750;11.970;2023-05-23T04:51:49;75134.38;;;-142.11;100.00
14800;BME280;7491;57.750;11.970;2023-05-23T04:54:18;75097.69;;;-142.11;100.00
14800;BME280;7491;57.750;11.970;2023-05-23T04:56:45;75085.47;;;-142.11;100.00
14800;BME280;7491;57.750;11.970;2023-05-23T04:59:12;75079.34;;;-142.11;100.00
14800;BME280;7491;57.750;11.970;2023-05-23T05:01:38;75061.00;;;-142.11;100.00
14800;BME280;7491;57.750;11.970;2023-05-23T05:04:05;75054.91;;;-142.11;100.00
14800;BME280;7491;57.750;11.970;2023-05-23T05:06:32;75048.78;;;-142.11;100.00
14800;BME280;7491;57.750;11.970;2023-05-23T05:08:59;75050.81;;;-142.11;100.00
14800;BME280;7491;57.750;11.970;2023-05-23T05:11:27;75036.56;;;-142.11;100.00
14800;BME280;7491;57.750;11.970;2023-05-23T05:13:54;75032.47;;;-142.11;100.00
14800;BME280;7491;57.750;11.970;2023-05-23T05:16:21;75024.34;;;-142.11;100.00
14800;BME280;7491;57.750;11.970;2023-05-23T05:18:51;75014.16;;;-142.11;100.00
14800;BME280;7491;57.750;11.970;2023-05-23T05:21:18;75014.16;;;-142.11;100.00
14800;BME280;7491;57.750;11.970;2023-05-23T05:23:44;75012.09;;;-142.11;100.00
14800;BME280;7491;57.750;11.970;2023-05-23T05:26:11;75016.19;;;-142.11;100.00
14800;BME280;7491;57.750;11.970;2023-05-23T05:28:39;75014.16;;;-142.11;100.00
14800;BME280;7491;57.750;11.970;2023-05-23T05:31:06;75006.00;;;-142.11;100.00
14800;BME280;7491;57.750;11.970;2023-05-23T05:33:34;74995.81;;;-142.11;100.00
14800;BME280;7491;57.750;11.970;2023-05-23T05:36:02;74995.81;;;-142.11;100.00
14800;BME280;7491;57.750;11.970;2023-05-23T05:38:28;75003.97;;;-142.11;100.00
14800;BME280;7491;57.750;11.970;2023-05-23T05:40:55;74991.72;;;-142.11;100.00
14800;BME280;7491;57.750;11.970;2023-05-23T05:43:22;74993.75;;;-142.11;100.00
14800;BME280;7491;57.750;11.970;2023-05-23T05:45:50;74989.69;;;-142.11;100.00
14800;BME280;7491;57.750;11.970;2023-05-23T05:48:16;74985.63;;;-142.11;100.00
14800;BME280;7491;57.750;11.970;2023-05-23T05:50:43;74985.63;;;-142.11;100.00
14800;BME280;7491;57.750;11.970;2023-05-23T05:53:11;74993.75;;;-142.11;100.00
14800;BME280;7491;57.750;11.970;2023-05-23T05:55:38;74987.66;;;-142.11;100.00
14800;BME280;7491;57.750;11.970;2023-05-23T05:58:04;74993.75;;;-142.11;100.00
14800;BME280;7491;57.750;11.970;2023-05-23T06:00:32;74993.75;;;-142.11;100.00
14800;BME280;7491;57.750;11.970;2023-05-23T06:03:07;75012.09;;;-142.11;100.00
14800;BME280;7491;57.750;11.970;2023-05-23T06:05:36;74999.88;;;-142.11;100.00
14800;BME280;7491;57.750;11.970;2023-05-23T06:08:03;75003.97;;;-142.11;100.00
14800;BME280;7491;57.750;11.970;2023-05-23T06:10:30;75001.91;;;-142.11;100.00
14800;BME280;7491;57.750;11.970;2023-05-23T06:12:58;75012.09;;;-142.11;100.00
14800;BME280;7491;57.750;11.970;2023-05-23T06:15:25;75014.16;;;-142.11;100.00
14800;BME280;7491;57.750;11.970;2023-05-23T06:17:52;75040.63;;;-142.11;100.00
14800;BME280;7491;57.750;11.970;2023-05-23T06:23:49;75054.91;;;-142.11;100.00
14800;BME280;7491;57.750;11.970;2023-05-23T06:26:16;75050.81;;;-142.11;100.00
14800;BME280;7491;57.750;11.970;2023-05-23T06:28:43;75046.75;;;-142.11;100.00
14800;BME280;7491;57.750;11.970;2023-05-23T06:31:28;75052.88;;;-142.11;100.00
14800;BME280;7491;57.750;11.970;2023-05-23T06:34:09;75077.31;;;-142.11;100.00
14800;BME280;7491;57.750;11.970;2023-05-23T06:36:38;75054.91;;;-142.11;100.00
14800;BME280;7491;57.750;11.970;2023-05-23T06:39:07;75077.31;;;-142.11;100.00
14800;BME280;7491;57.750;11.970;2023-05-23T06:41:34;75077.31;;;-142.11;100.00
14800;BME280;7491;57.750;11.970;2023-05-23T06:44:04;75052.88;;;-142.11;100.00
14800;BME280;7491;57.750;11.970;2023-05-23T06:46:31;75048.78;;;-142.11;100.00
14800;BME280;7491;57.750;11.970;2023-05-23T06:49:01;75046.75;;;-142.11;100.00
14800;BME280;7491;57.750;11.970;2023-05-23T06:51:28;75020.25;;;-142.11;100.00
14800;BME280;7491;57.750;11.970;2023-05-23T06:53:57;75028.41;;;-142.11;100.00
14800;BME280;7491;57.750;11.970;2023-05-23T06:56:23;75028.41;;;-142.11;100.00
14800;BME280;7491;57.750;11.970;2023-05-23T06:58:50;75030.44;;;-142.11;100.00
14800;BME280;7491;57.750;11.970;2023-05-23T07:01:17;75036.56;;;-142.11;100.00
14800;BME280;7491;57.750;11.970;2023-05-23T07:03:44;74999.88;;;-142.11;100.00
14800;BME280;7491;57.750;11.970;2023-05-23T07:09:28;75038.59;;;-142.11;100.00
14800;BME280;7491;57.750;11.970;2023-05-23T07:11:55;75058.97;;;-142.11;100.00
14800;BME280;7491;57.750;11.970;2023-05-23T07:14:24;75044.72;;;-142.11;99.92
14800;BME280;7491;57.750;11.970;2023-05-23T07:16:51;75032.47;;;-142.11;100.00
14800;BME280;7491;57.750;11.970;2023-05-23T07:19:18;75020.25;;;-142.11;100.00
14800;BME280;7491;57.750;11.970;2023-05-23T07:21:45;75040.63;;;-142.11;100.00
14800;BME280;7491;57.750;11.970;2023-05-23T07:24:12;75016.19;;;-142.11;100.00
14800;BME280;7491;57.750;11.970;2023-05-23T07:27:03;75032.47;;;-142.11;100.00
14800;BME280;7491;57.750;11.970;2023-05-23T07:29:30;75022.28;;;-142.11;100.00
14800;BME280;7491;57.750;11.970;2023-05-23T07:31:57;74989.69;;;-142.11;100.00
14800;BME280;7491;57.750;11.970;2023-05-23T07:34:27;74967.28;;;-142.11;100.00
14800;BME280;7491;57.750;11.970;2023-05-23T07:36:55;74963.19;;;-142.11;98.75
14800;BME280;7491;57.750;11.970;2023-05-23T07:39:22;74981.53;;;-142.11;99.24
14800;BME280;7491;57.750;11.970;2023-05-23T07:41:49;74971.34;;;-142.11;98.49
14800;BME280;7491;57.750;11.970;2023-05-23T07:44:24;74961.16;;;-142.11;98.21
14800;BME280;7491;57.750;11.970;2023-05-23T07:46:54;74948.94;;;-142.11;98.50
14800;BME280;7491;57.750;11.970;2023-05-23T07:49:26;74932.63;;;-142.11;97.12
14800;BME280;7491;57.750;11.970;2023-05-23T07:51:53;74944.84;;;-142.11;95.46
14800;BME280;7491;57.750;11.970;2023-05-23T07:54:21;74940.78;;;-142.11;95.17
14800;BME280;7491;57.750;11.970;2023-05-23T07:56:48;74930.59;;;-142.11;94.32
14800;BME280;7491;57.750;11.970;2023-05-23T07:59:15;74940.78;;;-142.11;92.37
14800;BME280;7491;57.750;11.970;2023-05-23T08:01:44;74946.91;;;-142.11;93.11
14800;BME280;7491;57.750;11.970;2023-05-23T08:04:11;74924.47;;;-142.11;93.70
14800;BME280;7491;57.750;11.970;2023-05-23T08:06:37;74922.44;;;-142.11;91.43
14800;BME280;7491;57.750;11.970;2023-05-23T08:09:05;74930.59;;;-142.11;90.62
14800;BME280;7491;57.750;11.970;2023-05-23T08:11:32;74940.78;;;-142.11;91.79
14800;BME280;7491;57.750;11.970;2023-05-23T08:13:58;74936.72;;;-142.11;92.70
14800;BME280;7491;57.750;11.970;2023-05-23T08:16:26;74924.47;;;-142.11;93.25
14800;BME280;7491;57.750;11.970;2023-05-23T08:18:54;74914.28;;;-142.11;91.76
14800;BME280;7491;57.750;11.970;2023-05-23T08:21:21;74910.22;;;-142.11;92.51
14800;BME280;7491;57.750;11.970;2023-05-23T08:23:48;74893.91;;;-142.11;92.59
14800;BME280;7491;57.750;11.970;2023-05-23T08:26:15;74879.66;;;-142.11;91.04
14800;BME280;7491;57.750;11.970;2023-05-23T08:28:42;74914.28;;;-142.11;90.42
14800;BME280;7491;57.750;11.970;2023-05-23T08:31:09;74881.69;;;-142.11;91.66
14800;BME280;7491;57.750;11.970;2023-05-23T08:33:35;74869.47;;;-142.11;92.56
14800;BME280;7491;57.750;11.970;2023-05-23T08:36:04;74873.53;;;-142.11;90.99
14800;BME280;7491;57.750;11.970;2023-05-23T08:38:31;74853.16;;;-142.11;93.18
14800;BME280;7491;57.750;11.970;2023-05-23T08:41:00;74871.50;;;-142.11;96.00
14800;BME280;7491;57.750;11.970;2023-05-23T08:43:27;74847.03;;;-142.11;90.80
14800;BME280;7491;57.750;11.970;2023-05-23T08:45:54;74855.19;;;-142.11;90.45
14800;BME280;7491;57.750;11.970;2023-05-23T08:48:21;74849.09;;;-142.11;90.51
14800;BME280;7491;57.750;11.970;2023-05-23T08:50:52;74834.81;;;-142.11;94.13
14800;BME280;7491;57.750;11.970;2023-05-23T08:53:22;74840.94;;;-142.11;94.90
14800;BME280;7491;57.750;11.970;2023-05-23T08:55:51;74847.03;;;-142.11;95.36
14800;BME280;7491;57.750;11.970;2023-05-23T08:58:21;74845.00;;;-142.11;95.52
14800;BME280;7491;57.750;11.970;2023-05-23T09:00:50;74834.81;;;-142.11;94.85
14800;BME280;7491;57.750;11.970;2023-05-23T09:03:18;74832.78;;;-142.11;95.22
14800;BME280;7491;57.750;11.970;2023-05-23T09:05:45;74806.28;;;-142.11;94.95
14800;BME280;7491;57.750;11.970;2023-05-23T09:08:13;74798.16;;;-142.11;93.66
14800;BME280;7491;57.750;11.970;2023-05-23T09:10:42;74771.66;;;-142.11;93.44
14800;BME280;7491;57.750;11.970;2023-05-23T09:13:09;74771.66;;;-142.11;92.82
14800;BME280;7491;57.750;11.970;2023-05-23T09:15:37;74783.88;;;-142.11;93.28
14800;BME280;7491;57.750;11.970;2023-05-23T09:18:04;74783.88;;;-142.11;93.86
14800;BME280;7491;57.750;11.970;2023-05-23T09:20:30;74775.72;;;-142.11;92.20
14800;BME280;7491;57.750;11.970;2023-05-23T09:22:57;74759.44;;;-142.11;92.95
14800;BME280;7491;57.750;11.970;2023-05-23T09:25:24;74763.50;;;-142.11;92.08
14800;BME280;7491;57.750;11.970;2023-05-23T09:27:52;74771.66;;;-142.11;93.13
14800;BME280;7491;57.750;11.970;2023-05-23T09:30:20;74755.34;;;-142.11;93.06
14800;BME280;7491;57.750;11.970;2023-05-23T09:32:57;74751.28;;;-142.11;93.40
14800;BME280;7491;57.750;11.970;2023-05-23T09:35:27;74741.09;;;-142.11;93.56
14800;BME280;7491;57.750;11.970;2023-05-23T09:37:56;74724.78;;;-142.11;93.83
14800;BME280;7491;57.750;11.970;2023-05-23T09:40:28;74720.72;;;-142.11;93.84
14800;BME280;7491;57.750;11.970;2023-05-23T09:43:01;74716.63;;;-142.11;91.85
14800;BME280;7491;57.750;11.970;2023-05-23T09:45:29;74708.47;;;-142.11;93.42
14800;BME280;7491;57.750;11.970;2023-05-23T09:47:56;74682.00;;;-142.11;93.62
14800;BME280;7491;57.750;11.970;2023-05-23T09:50:23;74684.03;;;-142.11;90.85
14800;BME280;7491;57.750;11.970;2023-05-23T09:52:50;74688.09;;;-142.11;92.50
14800;BME280;7491;57.750;11.970;2023-05-23T09:55:18;74692.19;;;-142.11;91.77
14800;BME280;7491;57.750;11.970;2023-05-23T09:57:48;74702.38;;;-142.11;92.30
14800;BME280;7491;57.750;11.970;2023-05-23T10:00:20;74669.78;;;-142.11;92.35
14800;BME280;7491;57.750;11.970;2023-05-23T10:02:58;74692.19;;;-142.11;90.07
14800;BME280;7491;57.750;11.970;2023-05-23T10:05:32;74700.34;;;-142.11;90.31
14800;BME280;7491;57.750;11.970;2023-05-23T10:08:01;74720.72;;;-142.11;90.04
14800;BME280;7491;57.750;11.970;2023-05-23T10:10:32;74730.91;;;-142.11;90.65
14800;BME280;7491;57.750;11.970;2023-05-23T10:13:01;74745.16;;;-142.11;90.69
14800;BME280;7491;57.750;11.970;2023-05-23T10:15:34;74728.88;;;-142.11;92.54
14800;BME280;7491;57.750;11.970;2023-05-23T10:18:08;74739.03;;;-142.11;90.67
14800;BME280;7491;57.750;11.970;2023-05-23T10:20:38;74753.31;;;-142.11;90.73
14800;BME280;7491;57.750;11.970;2023-05-23T10:23:05;74743.13;;;-142.11;90.92
14800;BME280;7491;57.750;11.970;2023-05-23T10:25:32;74751.28;;;-142.11;90.10
14800;BME280;7491;57.750;11.970;2023-05-23T10:28:02;74728.88;;;-142.11;90.84
14800;BME280;7491;57.750;11.970;2023-05-23T10:30:31;74739.03;;;-142.11;92.41
14800;BME280;7491;57.750;11.970;2023-05-23T10:32:58;74743.13;;;-142.11;93.80
14800;BME280;7491;57.750;11.970;2023-05-23T10:35:35;74757.38;;;-142.11;94.85
14800;BME280;7491;57.750;11.970;2023-05-23T10:38:09;74765.53;;;-142.11;96.55
14800;BME280;7491;57.750;11.970;2023-05-23T10:40:47;74769.63;;;-142.11;97.54
14800;BME280;7491;57.750;11.970;2023-05-23T10:43:22;74763.50;;;-142.11;97.34
14800;BME280;7491;57.750;11.970;2023-05-23T10:45:53;74794.06;;;-142.11;97.22
14800;BME280;7491;57.750;11.970;2023-05-23T10:48:20;74802.22;;;-142.11;97.12
14800;BME280;7491;57.750;11.970;2023-05-23T10:51:01;74814.44;;;-142.11;97.99
14800;BME280;7491;57.750;11.970;2023-05-23T10:53:30;74814.44;;;-142.11;100.00
14800;BME280;7491;57.750;11.970;2023-05-23T10:55:57;74867.44;;;-142.11;100.00
14800;BME280;7491;57.750;11.970;2023-05-23T10:58:24;74865.38;;;-142.11;100.00
14800;BME280;7491;57.750;11.970;2023-05-23T11:00:54;74889.84;;;-142.11;100.00
14800;BME280;7491;57.750;11.970;2023-05-23T11:03:32;74910.22;;;-142.11;100.00
14800;BME280;7491;57.750;11.970;2023-05-23T11:06:00;74895.94;;;-142.11;100.00
14800;BME280;7491;57.750;11.970;2023-05-23T11:08:28;74912.25;;;-142.11;100.00
14800;BME280;7491;57.750;11.970;2023-05-23T11:11:02;74900.03;;;-142.11;100.00
14800;BME280;7491;57.750;11.970;2023-05-23T11:13:54;74916.31;;;-142.11;100.00
14800;BME280;7491;57.750;11.970;2023-05-23T11:16:27;74922.44;;;-142.11;100.00
14800;BME280;7491;57.750;11.970;2023-05-23T11:19:20;74928.56;;;-142.11;100.00
14800;BME280;7491;57.750;11.970;2023-05-23T11:21:52;74936.72;;;-142.11;100.00
14800;BME280;7491;57.750;11.970;2023-05-23T11:24:20;74959.13;;;-142.11;100.00
14800;BME280;7491;57.750;11.970;2023-05-23T11:26:54;74977.47;;;-142.11;100.00
14800;BME280;7491;57.750;11.970;2023-05-23T11:29:25;74985.63;;;-142.11;100.00
14800;BME280;7491;57.750;11.970;2023-05-23T11:31:54;74975.44;;;-142.11;100.00
14800;BME280;7491;57.750;11.970;2023-05-23T11:34:24;74999.88;;;-142.11;100.00
14800;BME280;7491;57.750;11.970;2023-05-23T11:36:57;74993.75;;;-142.11;100.00
14800;BME280;7491;57.750;11.970;2023-05-23T11:39:27;74997.84;;;-142.11;100.00
14800;BME280;7491;57.750;11.970;2023-05-23T11:42:00;75030.44;;;-142.11;100.00
14800;BME280;7491;57.750;11.970;2023-05-23T11:44:31;75018.22;;;-142.11;100.00
14800;BME280;7491;57.750;11.970;2023-05-23T11:47:00;75040.63;;;-142.11;100.00
14800;BME280;7491;57.750;11.970;2023-05-23T11:49:29;75040.63;;;-142.11;100.00
14800;BME280;7491;57.750;11.970;2023-05-23T11:51:58;75044.72;;;-142.11;100.00
14800;BME280;7491;57.750;11.970;2023-05-23T11:54:28;75046.75;;;-142.11;100.00
14800;BME280;7491;57.750;11.970;2023-05-23T11:56:56;75036.56;;;-142.11;100.00
14800;BME280;7491;57.750;11.970;2023-05-23T11:59:25;75024.34;;;-142.11;100.00
14800;BME280;7491;57.750;11.970;2023-05-23T12:01:52;75040.63;;;-142.11;100.00
14800;BME280;7491;57.750;11.970;2023-05-23T12:04:21;75024.34;;;-142.11;100.00
14800;BME280;7491;57.750;11.970;2023-05-23T12:06:50;75022.28;;;-142.11;100.00
14800;BME280;7491;57.750;11.970;2023-05-23T12:09:18;75024.34;;;-142.11;100.00
14800;BME280;7491;57.750;11.970;2023-05-23T12:12:02;75001.91;;;-142.11;100.00
14800;BME280;7491;57.750;11.970;2023-05-23T12:14:30;75038.59;;;-142.11;100.00
14800;BME280;7491;57.750;11.970;2023-05-23T12:19:56;75073.25;;;-142.11;100.00
14800;BME280;7491;57.750;11.970;2023-05-23T12:22:23;75099.72;;;-142.11;100.00
14800;BME280;7491;57.750;11.970;2023-05-23T12:24:54;75073.25;;;-142.11;100.00
14800;BME280;7491;57.750;11.970;2023-05-23T12:27:26;75073.25;;;-142.11;100.00
14800;BME280;7491;57.750;11.970;2023-05-23T12:30:05;75065.09;;;-142.11;100.00
14800;BME280;7491;57.750;11.970;2023-05-23T12:32:34;75054.91;;;-142.11;100.00
14800;BME280;7491;57.750;11.970;2023-05-23T12:35:05;75067.13;;;-142.11;100.00
14800;BME280;7491;57.750;11.970;2023-05-23T12:37:38;75085.47;;;-142.11;100.00
14800;BME280;7491;57.750;11.970;2023-05-23T12:40:12;75085.47;;;-142.11;100.00
14800;BME280;7491;57.750;11.970;2023-05-23T12:42:52;75095.66;;;-142.11;100.00
14800;BME280;7491;57.750;11.970;2023-05-23T12:45:19;75114.00;;;-142.11;100.00
14800;BME280;7491;57.750;11.970;2023-05-23T12:47:47;75101.78;;;-142.11;100.00
14800;BME280;7491;57.750;11.970;2023-05-23T12:50:15;75087.50;;;-142.11;100.00
14800;BME280;7491;57.750;11.970;2023-05-23T12:52:43;75077.31;;;-142.11;100.00